Airport ICAO


14:18 UTC

12°C

Light rain


An affordable passengers' Moving Map for your aircraft. Made for the iPad and the iPhone
More information here

LFAT Paris Plage


Le Tourquet FRANCE   VFR CB


METAR LFAT 231400Z AUTO 35016KT 340V050 7000 -RA FEW017/// SCT054/// OVC066/// ///TCU 12/10 Q1017 TEMPO 34020G35KT 3000 SHRA BKN008 BKN015CB 0h18min

TAF LFAT 231100Z 2312/2321 34015G25KT 9999 BKN015 TEMPO 2312/2316 34020G35KT 3000 SHRA BKN008 BKN015CB BECMG 2319/2321 27005KT 3h18min





NOTAMS

OPEN